sensor_id;sensor_type;location;lat;lon;timestamp;pressure;altitude;pressure_sealevel;temperature
12918;BMP180;6526;54.312;13.092;2023-12-20T00:01:37;101034.00;;;9.80
12918;BMP180;6526;54.312;13.092;2023-12-20T00:04:04;101036.00;;;9.80
12918;BMP180;6526;54.312;13.092;2023-12-20T00:06:30;101031.00;;;9.90
12918;BMP180;6526;54.312;13.092;2023-12-20T00:08:56;101031.00;;;9.80
12918;BMP180;6526;54.312;13.092;2023-12-20T00:11:24;101026.00;;;9.80
12918;BMP180;6526;54.312;13.092;2023-12-20T00:13:50;101021.00;;;9.80
12918;BMP180;6526;54.312;13.092;2023-12-20T00:16:16;101020.00;;;9.80
12918;BMP180;6526;54.312;13.092;2023-12-20T00:18:42;101003.00;;;9.80
12918;BMP180;6526;54.312;13.092;2023-12-20T00:21:08;101026.00;;;9.90
12918;BMP180;6526;54.312;13.092;2023-12-20T00:23:34;101026.00;;;9.80
12918;BMP180;6526;54.312;13.092;2023-12-20T00:26:00;101020.00;;;9.80
12918;BMP180;6526;54.312;13.092;2023-12-20T00:28:26;101020.00;;;9.80
12918;BMP180;6526;54.312;13.092;2023-12-20T00:30:52;101016.00;;;9.90
12918;BMP180;6526;54.312;13.092;2023-12-20T00:33:18;101017.00;;;9.80
12918;BMP180;6526;54.312;13.092;2023-12-20T00:35:44;101012.00;;;9.80
12918;BMP180;6526;54.312;13.092;2023-12-20T00:38:10;101016.00;;;9.80
12918;BMP180;6526;54.312;13.092;2023-12-20T00:40:37;101010.00;;;9.80
12918;BMP180;6526;54.312;13.092;2023-12-20T00:43:03;101003.00;;;9.80
12918;BMP180;6526;54.312;13.092;2023-12-20T00:45:29;101014.00;;;9.90
12918;BMP180;6526;54.312;13.092;2023-12-20T00:47:55;101013.00;;;9.80
12918;BMP180;6526;54.312;13.092;2023-12-20T00:50:21;101007.00;;;9.80
12918;BMP180;6526;54.312;13.092;2023-12-20T00:52:48;101002.00;;;9.80
12918;BMP180;6526;54.312;13.092;2023-12-20T00:55:14;100995.00;;;9.80
12918;BMP180;6526;54.312;13.092;2023-12-20T00:57:40;101000.00;;;9.80
12918;BMP180;6526;54.312;13.092;2023-12-20T01:00:07;100996.00;;;9.80
12918;BMP180;6526;54.312;13.092;2023-12-20T01:02:35;101000.00;;;9.80
12918;BMP180;6526;54.312;13.092;2023-12-20T01:05:01;101006.00;;;9.90
12918;BMP180;6526;54.312;13.092;2023-12-20T01:07:27;101004.00;;;9.80
12918;BMP180;6526;54.312;13.092;2023-12-20T01:09:53;101005.00;;;9.80
12918;BMP180;6526;54.312;13.092;2023-12-20T01:12:19;101005.00;;;9.80
12918;BMP180;6526;54.312;13.092;2023-12-20T01:14:46;101007.00;;;9.80
12918;BMP180;6526;54.312;13.092;2023-12-20T01:17:12;101001.00;;;9.90
12918;BMP180;6526;54.312;13.092;2023-12-20T01:19:38;100993.00;;;9.90
12918;BMP180;6526;54.312;13.092;2023-12-20T01:22:04;101013.00;;;9.80
12918;BMP180;6526;54.312;13.092;2023-12-20T01:24:31;101014.00;;;9.80
12918;BMP180;6526;54.312;13.092;2023-12-20T01:26:57;101005.00;;;9.70
12918;BMP180;6526;54.312;13.092;2023-12-20T01:29:23;100997.00;;;9.70
12918;BMP180;6526;54.312;13.092;2023-12-20T01:31:49;100988.00;;;9.70
12918;BMP180;6526;54.312;13.092;2023-12-20T01:34:15;100991.00;;;9.70
12918;BMP180;6526;54.312;13.092;2023-12-20T01:36:42;100991.00;;;9.70
12918;BMP180;6526;54.312;13.092;2023-12-20T01:39:08;100982.00;;;9.70
12918;BMP180;6526;54.312;13.092;2023-12-20T01:41:34;100982.00;;;9.60
12918;BMP180;6526;54.312;13.092;2023-12-20T01:44:00;100971.00;;;9.60
12918;BMP180;6526;54.312;13.092;2023-12-20T01:46:26;100975.00;;;9.60
12918;BMP180;6526;54.312;13.092;2023-12-20T01:48:53;100964.00;;;9.60
12918;BMP180;6526;54.312;13.092;2023-12-20T01:51:20;100962.00;;;9.60
12918;BMP180;6526;54.312;13.092;2023-12-20T01:53:47;100951.00;;;9.60
12918;BMP180;6526;54.312;13.092;2023-12-20T01:56:14;100949.00;;;9.60
12918;BMP180;6526;54.312;13.092;2023-12-20T01:58:44;100946.00;;;9.70
12918;BMP180;6526;54.312;13.092;2023-12-20T02:01:12;100939.00;;;9.60
12918;BMP180;6526;54.312;13.092;2023-12-20T02:03:40;100938.00;;;9.70
12918;BMP180;6526;54.312;13.092;2023-12-20T02:06:08;100943.00;;;9.60
12918;BMP180;6526;54.312;13.092;2023-12-20T02:08:35;100950.00;;;9.60
12918;BMP180;6526;54.312;13.092;2023-12-20T02:11:01;100938.00;;;9.60
12918;BMP180;6526;54.312;13.092;2023-12-20T02:13:28;100940.00;;;9.70
12918;BMP180;6526;54.312;13.092;2023-12-20T02:15:55;100940.00;;;9.70
12918;BMP180;6526;54.312;13.092;2023-12-20T02:18:21;100931.00;;;9.70
12918;BMP180;6526;54.312;13.092;2023-12-20T02:20:47;100928.00;;;9.70
12918;BMP180;6526;54.312;13.092;2023-12-20T02:23:13;100934.00;;;9.70
12918;BMP180;6526;54.312;13.092;2023-12-20T02:25:39;100929.00;;;9.60
12918;BMP180;6526;54.312;13.092;2023-12-20T02:28:06;100923.00;;;9.60
12918;BMP180;6526;54.312;13.092;2023-12-20T02:30:32;100928.00;;;9.60
12918;BMP180;6526;54.312;13.092;2023-12-20T02:33:00;100924.00;;;9.60
12918;BMP180;6526;54.312;13.092;2023-12-20T02:35:26;100913.00;;;9.70
12918;BMP180;6526;54.312;13.092;2023-12-20T02:37:52;100903.00;;;9.60
12918;BMP180;6526;54.312;13.092;2023-12-20T02:40:18;100900.00;;;9.60
12918;BMP180;6526;54.312;13.092;2023-12-20T02:42:44;100902.00;;;9.50
12918;BMP180;6526;54.312;13.092;2023-12-20T02:45:10;100890.00;;;9.50
12918;BMP180;6526;54.312;13.092;2023-12-20T02:47:36;100888.00;;;9.50
12918;BMP180;6526;54.312;13.092;2023-12-20T02:50:03;100878.00;;;9.60
12918;BMP180;6526;54.312;13.092;2023-12-20T02:52:29;100868.00;;;9.50
12918;BMP180;6526;54.312;13.092;2023-12-20T02:54:55;100858.00;;;9.60
12918;BMP180;6526;54.312;13.092;2023-12-20T02:57:21;100866.00;;;9.60
12918;BMP180;6526;54.312;13.092;2023-12-20T02:59:47;100861.00;;;9.60
12918;BMP180;6526;54.312;13.092;2023-12-20T03:02:13;100867.00;;;9.60
12918;BMP180;6526;54.312;13.092;2023-12-20T03:04:39;100866.00;;;9.60
12918;BMP180;6526;54.312;13.092;2023-12-20T03:07:05;100863.00;;;9.50
12918;BMP180;6526;54.312;13.092;2023-12-20T03:09:32;100862.00;;;9.50
12918;BMP180;6526;54.312;13.092;2023-12-20T03:11:58;100850.00;;;9.50
12918;BMP180;6526;54.312;13.092;2023-12-20T03:14:24;100848.00;;;9.60
12918;BMP180;6526;54.312;13.092;2023-12-20T03:16:50;100853.00;;;9.60
12918;BMP180;6526;54.312;13.092;2023-12-20T03:19:17;100844.00;;;9.60
12918;BMP180;6526;54.312;13.092;2023-12-20T03:21:43;100843.00;;;9.50
12918;BMP180;6526;54.312;13.092;2023-12-20T03:24:09;100836.00;;;9.50
12918;BMP180;6526;54.312;13.092;2023-12-20T03:26:35;100830.00;;;9.50
12918;BMP180;6526;54.312;13.092;2023-12-20T03:29:01;100834.00;;;9.50
12918;BMP180;6526;54.312;13.092;2023-12-20T03:31:27;100823.00;;;9.50
12918;BMP180;6526;54.312;13.092;2023-12-20T03:33:53;100832.00;;;9.50
12918;BMP180;6526;54.312;13.092;2023-12-20T03:36:20;100826.00;;;9.50
12918;BMP180;6526;54.312;13.092;2023-12-20T03:38:46;100814.00;;;9.50
12918;BMP180;6526;54.312;13.092;2023-12-20T03:41:12;100804.00;;;9.50
12918;BMP180;6526;54.312;13.092;2023-12-20T03:43:38;100812.00;;;9.50
12918;BMP180;6526;54.312;13.092;2023-12-20T03:46:05;100796.00;;;9.40
12918;BMP180;6526;54.312;13.092;2023-12-20T03:48:34;100787.00;;;9.40
12918;BMP180;6526;54.312;13.092;2023-12-20T03:51:00;100788.00;;;9.50
12918;BMP180;6526;54.312;13.092;2023-12-20T03:53:26;100779.00;;;9.50
12918;BMP180;6526;54.312;13.092;2023-12-20T03:55:52;100779.00;;;9.50
12918;BMP180;6526;54.312;13.092;2023-12-20T03:58:18;100783.00;;;9.50
12918;BMP180;6526;54.312;13.092;2023-12-20T04:00:44;100777.00;;;9.50
12918;BMP180;6526;54.312;13.092;2023-12-20T04:03:10;100788.00;;;9.50
12918;BMP180;6526;54.312;13.092;2023-12-20T04:05:40;100773.00;;;9.50
12918;BMP180;6526;54.312;13.092;2023-12-20T04:08:06;100783.00;;;9.50
12918;BMP180;6526;54.312;13.092;2023-12-20T04:10:32;100778.00;;;9.50
12918;BMP180;6526;54.312;13.092;2023-12-20T04:12:58;100774.00;;;9.50
12918;BMP180;6526;54.312;13.092;2023-12-20T04:15:24;100770.00;;;9.40
12918;BMP180;6526;54.312;13.092;2023-12-20T04:17:51;100771.00;;;9.40
12918;BMP180;6526;54.312;13.092;2023-12-20T04:20:17;100772.00;;;9.50
12918;BMP180;6526;54.312;13.092;2023-12-20T04:22:43;100769.00;;;9.50
12918;BMP180;6526;54.312;13.092;2023-12-20T04:25:09;100777.00;;;9.50
12918;BMP180;6526;54.312;13.092;2023-12-20T04:27:35;100782.00;;;9.50
12918;BMP180;6526;54.312;13.092;2023-12-20T04:30:01;100774.00;;;9.50
12918;BMP180;6526;54.312;13.092;2023-12-20T04:32:27;100773.00;;;9.50
12918;BMP180;6526;54.312;13.092;2023-12-20T04:34:53;100775.00;;;9.50
12918;BMP180;6526;54.312;13.092;2023-12-20T04:37:19;100778.00;;;9.50
12918;BMP180;6526;54.312;13.092;2023-12-20T04:39:45;100766.00;;;9.50
12918;BMP180;6526;54.312;13.092;2023-12-20T04:42:11;100780.00;;;9.50
12918;BMP180;6526;54.312;13.092;2023-12-20T04:44:37;100760.00;;;9.50
12918;BMP180;6526;54.312;13.092;2023-12-20T04:47:03;100754.00;;;9.50
12918;BMP180;6526;54.312;13.092;2023-12-20T04:49:30;100738.00;;;9.50
12918;BMP180;6526;54.312;13.092;2023-12-20T04:51:56;100743.00;;;9.60
12918;BMP180;6526;54.312;13.092;2023-12-20T04:54:22;100739.00;;;9.50
12918;BMP180;6526;54.312;13.092;2023-12-20T04:56:49;100733.00;;;9.50
12918;BMP180;6526;54.312;13.092;2023-12-20T04:59:15;100734.00;;;9.50
12918;BMP180;6526;54.312;13.092;2023-12-20T05:01:41;100734.00;;;9.60
12918;BMP180;6526;54.312;13.092;2023-12-20T05:04:07;100728.00;;;9.60
12918;BMP180;6526;54.312;13.092;2023-12-20T05:06:33;100724.00;;;9.60
12918;BMP180;6526;54.312;13.092;2023-12-20T05:08:59;100723.00;;;9.70
12918;BMP180;6526;54.312;13.092;2023-12-20T05:11:25;100710.00;;;9.70
12918;BMP180;6526;54.312;13.092;2023-12-20T05:13:51;100708.00;;;9.60
12918;BMP180;6526;54.312;13.092;2023-12-20T05:16:17;100719.00;;;9.60
12918;BMP180;6526;54.312;13.092;2023-12-20T05:18:44;100712.00;;;9.60
12918;BMP180;6526;54.312;13.092;2023-12-20T05:21:10;100705.00;;;9.60
12918;BMP180;6526;54.312;13.092;2023-12-20T05:23:36;100700.00;;;9.60
12918;BMP180;6526;54.312;13.092;2023-12-20T05:26:03;100711.00;;;9.60
12918;BMP180;6526;54.312;13.092;2023-12-20T05:28:29;100698.00;;;9.60
12918;BMP180;6526;54.312;13.092;2023-12-20T05:30:55;100692.00;;;9.60
12918;BMP180;6526;54.312;13.092;2023-12-20T05:33:21;100688.00;;;9.60
12918;BMP180;6526;54.312;13.092;2023-12-20T05:35:47;100685.00;;;9.60
12918;BMP180;6526;54.312;13.092;2023-12-20T05:38:13;100681.00;;;9.60
12918;BMP180;6526;54.312;13.092;2023-12-20T05:40:39;100674.00;;;9.60
12918;BMP180;6526;54.312;13.092;2023-12-20T05:43:05;100666.00;;;9.60
12918;BMP180;6526;54.312;13.092;2023-12-20T05:45:31;100663.00;;;9.60
12918;BMP180;6526;54.312;13.092;2023-12-20T05:47:57;100665.00;;;9.60
12918;BMP180;6526;54.312;13.092;2023-12-20T05:50:24;100661.00;;;9.60
12918;BMP180;6526;54.312;13.092;2023-12-20T05:52:50;100667.00;;;9.70
12918;BMP180;6526;54.312;13.092;2023-12-20T05:55:16;100651.00;;;9.70
12918;BMP180;6526;54.312;13.092;2023-12-20T05:57:42;100651.00;;;9.70
12918;BMP180;6526;54.312;13.092;2023-12-20T06:00:09;100652.00;;;9.70
12918;BMP180;6526;54.312;13.092;2023-12-20T06:02:36;100642.00;;;9.60
12918;BMP180;6526;54.312;13.092;2023-12-20T06:05:04;100636.00;;;9.70
12918;BMP180;6526;54.312;13.092;2023-12-20T06:07:30;100640.00;;;9.70
12918;BMP180;6526;54.312;13.092;2023-12-20T06:09:56;100641.00;;;9.70
12918;BMP180;6526;54.312;13.092;2023-12-20T06:12:22;100629.00;;;9.70
12918;BMP180;6526;54.312;13.092;2023-12-20T06:14:48;100626.00;;;9.80
12918;BMP180;6526;54.312;13.092;2023-12-20T06:17:14;100626.00;;;9.80
12918;BMP180;6526;54.312;13.092;2023-12-20T06:19:40;100632.00;;;9.80
12918;BMP180;6526;54.312;13.092;2023-12-20T06:22:08;100626.00;;;9.80
12918;BMP180;6526;54.312;13.092;2023-12-20T06:24:34;100623.00;;;9.80
12918;BMP180;6526;54.312;13.092;2023-12-20T06:27:00;100624.00;;;9.80
12918;BMP180;6526;54.312;13.092;2023-12-20T06:29:26;100616.00;;;9.80
12918;BMP180;6526;54.312;13.092;2023-12-20T06:31:52;100619.00;;;9.80
12918;BMP180;6526;54.312;13.092;2023-12-20T06:34:18;100616.00;;;9.80
12918;BMP180;6526;54.312;13.092;2023-12-20T06:36:44;100622.00;;;9.80
12918;BMP180;6526;54.312;13.092;2023-12-20T06:39:10;100621.00;;;9.80
12918;BMP180;6526;54.312;13.092;2023-12-20T06:41:38;100614.00;;;9.80
12918;BMP180;6526;54.312;13.092;2023-12-20T06:44:04;100619.00;;;9.80
12918;BMP180;6526;54.312;13.092;2023-12-20T06:46:31;100612.00;;;9.80
12918;BMP180;6526;54.312;13.092;2023-12-20T06:48:57;100611.00;;;9.80
12918;BMP180;6526;54.312;13.092;2023-12-20T06:51:23;100605.00;;;9.80
12918;BMP180;6526;54.312;13.092;2023-12-20T06:53:52;100605.00;;;9.70
12918;BMP180;6526;54.312;13.092;2023-12-20T06:56:18;100603.00;;;9.70
12918;BMP180;6526;54.312;13.092;2023-12-20T06:58:44;100590.00;;;9.70
12918;BMP180;6526;54.312;13.092;2023-12-20T07:01:14;100581.00;;;9.70
12918;BMP180;6526;54.312;13.092;2023-12-20T07:03:40;100577.00;;;9.70
12918;BMP180;6526;54.312;13.092;2023-12-20T07:06:07;100569.00;;;9.70
12918;BMP180;6526;54.312;13.092;2023-12-20T07:08:33;100573.00;;;9.70
12918;BMP180;6526;54.312;13.092;2023-12-20T07:10:59;100577.00;;;9.70
12918;BMP180;6526;54.312;13.092;2023-12-20T07:13:25;100577.00;;;9.60
12918;BMP180;6526;54.312;13.092;2023-12-20T07:15:51;100579.00;;;9.60
12918;BMP180;6526;54.312;13.092;2023-12-20T07:18:17;100597.00;;;9.60
12918;BMP180;6526;54.312;13.092;2023-12-20T07:20:43;100606.00;;;9.60
12918;BMP180;6526;54.312;13.092;2023-12-20T07:23:09;100601.00;;;9.60
12918;BMP180;6526;54.312;13.092;2023-12-20T07:25:35;100601.00;;;9.60
12918;BMP180;6526;54.312;13.092;2023-12-20T07:28:01;100625.00;;;9.60
12918;BMP180;6526;54.312;13.092;2023-12-20T07:30:27;100608.00;;;9.50
12918;BMP180;6526;54.312;13.092;2023-12-20T07:32:54;100606.00;;;9.40
12918;BMP180;6526;54.312;13.092;2023-12-20T07:35:20;100594.00;;;9.40
12918;BMP180;6526;54.312;13.092;2023-12-20T07:37:46;100595.00;;;9.40
12918;BMP180;6526;54.312;13.092;2023-12-20T07:40:12;100593.00;;;9.40
12918;BMP180;6526;54.312;13.092;2023-12-20T07:42:38;100594.00;;;9.40
12918;BMP180;6526;54.312;13.092;2023-12-20T07:45:04;100597.00;;;9.40
12918;BMP180;6526;54.312;13.092;2023-12-20T07:47:30;100597.00;;;9.40
12918;BMP180;6526;54.312;13.092;2023-12-20T07:49:56;100597.00;;;9.30
12918;BMP180;6526;54.312;13.092;2023-12-20T07:52:23;100602.00;;;9.30
12918;BMP180;6526;54.312;13.092;2023-12-20T07:54:49;100570.00;;;9.30
12918;BMP180;6526;54.312;13.092;2023-12-20T07:57:15;100567.00;;;9.40
12918;BMP180;6526;54.312;13.092;2023-12-20T07:59:41;100563.00;;;9.40
12918;BMP180;6526;54.312;13.092;2023-12-20T08:02:08;100574.00;;;9.40
12918;BMP180;6526;54.312;13.092;2023-12-20T08:04:34;100574.00;;;9.50
12918;BMP180;6526;54.312;13.092;2023-12-20T08:07:00;100568.00;;;9.50
12918;BMP180;6526;54.312;13.092;2023-12-20T08:09:26;100564.00;;;9.40
12918;BMP180;6526;54.312;13.092;2023-12-20T08:11:52;100557.00;;;9.40
12918;BMP180;6526;54.312;13.092;2023-12-20T08:14:18;100567.00;;;9.40
12918;BMP180;6526;54.312;13.092;2023-12-20T08:16:44;100555.00;;;9.40
12918;BMP180;6526;54.312;13.092;2023-12-20T08:19:10;100548.00;;;9.40
12918;BMP180;6526;54.312;13.092;2023-12-20T08:21:36;100549.00;;;9.50
12918;BMP180;6526;54.312;13.092;2023-12-20T08:24:02;100546.00;;;9.50
12918;BMP180;6526;54.312;13.092;2023-12-20T08:26:28;100555.00;;;9.60
12918;BMP180;6526;54.312;13.092;2023-12-20T08:28:54;100548.00;;;9.50
12918;BMP180;6526;54.312;13.092;2023-12-20T08:31:21;100539.00;;;9.60
12918;BMP180;6526;54.312;13.092;2023-12-20T08:33:48;100548.00;;;9.60
12918;BMP180;6526;54.312;13.092;2023-12-20T08:36:14;100535.00;;;9.60
12918;BMP180;6526;54.312;13.092;2023-12-20T08:38:40;100548.00;;;9.60
12918;BMP180;6526;54.312;13.092;2023-12-20T08:41:07;100539.00;;;9.60
12918;BMP180;6526;54.312;13.092;2023-12-20T08:43:35;100547.00;;;9.60
12918;BMP180;6526;54.312;13.092;2023-12-20T08:46:01;100550.00;;;9.60
12918;BMP180;6526;54.312;13.092;2023-12-20T08:48:28;100546.00;;;9.60
12918;BMP180;6526;54.312;13.092;2023-12-20T08:50:54;100532.00;;;9.60
12918;BMP180;6526;54.312;13.092;2023-12-20T08:53:20;100533.00;;;9.60
12918;BMP180;6526;54.312;13.092;2023-12-20T08:55:46;100538.00;;;9.50
12918;BMP180;6526;54.312;13.092;2023-12-20T08:58:12;100525.00;;;9.60
12918;BMP180;6526;54.312;13.092;2023-12-20T09:00:38;100521.00;;;9.60
12918;BMP180;6526;54.312;13.092;2023-12-20T09:03:04;100538.00;;;9.60
12918;BMP180;6526;54.312;13.092;2023-12-20T09:05:31;100528.00;;;9.60
12918;BMP180;6526;54.312;13.092;2023-12-20T09:07:57;100515.00;;;9.60
12918;BMP180;6526;54.312;13.092;2023-12-20T09:10:23;100531.00;;;9.60
12918;BMP180;6526;54.312;13.092;2023-12-20T09:12:52;100524.00;;;9.60
12918;BMP180;6526;54.312;13.092;2023-12-20T09:15:26;100518.00;;;9.60
12918;BMP180;6526;54.312;13.092;2023-12-20T09:17:52;100526.00;;;9.60
12918;BMP180;6526;54.312;13.092;2023-12-20T09:20:19;100517.00;;;9.60
12918;BMP180;6526;54.312;13.092;2023-12-20T09:22:45;100511.00;;;9.60
12918;BMP180;6526;54.312;13.092;2023-12-20T09:25:11;100527.00;;;9.60
12918;BMP180;6526;54.312;13.092;2023-12-20T09:27:38;100510.00;;;9.60
12918;BMP180;6526;54.312;13.092;2023-12-20T09:30:05;100500.00;;;9.60
12918;BMP180;6526;54.312;13.092;2023-12-20T09:32:31;100506.00;;;9.60
12918;BMP180;6526;54.312;13.092;2023-12-20T09:34:57;100498.00;;;9.50
12918;BMP180;6526;54.312;13.092;2023-12-20T09:37:27;100507.00;;;9.50
12918;BMP180;6526;54.312;13.092;2023-12-20T09:39:54;100496.00;;;9.50
12918;BMP180;6526;54.312;13.092;2023-12-20T09:43:02;100479.00;;;9.50
12918;BMP180;6526;54.312;13.092;2023-12-20T09:45:31;100475.00;;;9.50
12918;BMP180;6526;54.312;13.092;2023-12-20T09:47:58;100460.00;;;9.50
12918;BMP180;6526;54.312;13.092;2023-12-20T09:50:24;100462.00;;;9.50
12918;BMP180;6526;54.312;13.092;2023-12-20T09:52:52;100455.00;;;9.50
12918;BMP180;6526;54.312;13.092;2023-12-20T09:55:19;100434.00;;;9.50
12918;BMP180;6526;54.312;13.092;2023-12-20T09:57:47;100450.00;;;9.50
12918;BMP180;6526;54.312;13.092;2023-12-20T10:00:14;100441.00;;;9.50
12918;BMP180;6526;54.312;13.092;2023-12-20T10:03:06;100426.00;;;9.60
12918;BMP180;6526;54.312;13.092;2023-12-20T10:05:32;100435.00;;;9.80
12918;BMP180;6526;54.312;13.092;2023-12-20T10:07:58;100419.00;;;9.80
12918;BMP180;6526;54.312;13.092;2023-12-20T10:10:25;100419.00;;;9.80
12918;BMP180;6526;54.312;13.092;2023-12-20T10:13:12;100405.00;;;9.80
12918;BMP180;6526;54.312;13.092;2023-12-20T10:15:38;100403.00;;;9.80
12918;BMP180;6526;54.312;13.092;2023-12-20T10:18:05;100381.00;;;9.80
12918;BMP180;6526;54.312;13.092;2023-12-20T10:20:32;100380.00;;;9.80
12918;BMP180;6526;54.312;13.092;2023-12-20T10:22:59;100361.00;;;9.80
12918;BMP180;6526;54.312;13.092;2023-12-20T10:25:26;100371.00;;;9.90
12918;BMP180;6526;54.312;13.092;2023-12-20T10:30:35;100359.00;;;10.00
12918;BMP180;6526;54.312;13.092;2023-12-20T10:33:01;100339.00;;;9.90
12918;BMP180;6526;54.312;13.092;2023-12-20T10:35:27;100344.00;;;10.00
12918;BMP180;6526;54.312;13.092;2023-12-20T10:37:56;100341.00;;;9.90
12918;BMP180;6526;54.312;13.092;2023-12-20T10:40:22;100344.00;;;9.90
12918;BMP180;6526;54.312;13.092;2023-12-20T10:42:49;100333.00;;;9.90
12918;BMP180;6526;54.312;13.092;2023-12-20T10:45:16;100333.00;;;9.90
12918;BMP180;6526;54.312;13.092;2023-12-20T10:47:45;100335.00;;;9.90
12918;BMP180;6526;54.312;13.092;2023-12-20T10:50:12;100331.00;;;9.80
12918;BMP180;6526;54.312;13.092;2023-12-20T10:52:38;100333.00;;;9.90
12918;BMP180;6526;54.312;13.092;2023-12-20T10:55:06;100314.00;;;9.90
12918;BMP180;6526;54.312;13.092;2023-12-20T10:57:32;100324.00;;;9.90
12918;BMP180;6526;54.312;13.092;2023-12-20T11:00:02;100309.00;;;9.90
12918;BMP180;6526;54.312;13.092;2023-12-20T11:02:33;100322.00;;;9.70
12918;BMP180;6526;54.312;13.092;2023-12-20T11:07:46;100298.00;;;9.70
12918;BMP180;6526;54.312;13.092;2023-12-20T11:10:22;100300.00;;;9.70
12918;BMP180;6526;54.312;13.092;2023-12-20T11:13:11;100298.00;;;9.60
12918;BMP180;6526;54.312;13.092;2023-12-20T11:15:38;100296.00;;;9.70
12918;BMP180;6526;54.312;13.092;2023-12-20T11:18:04;100299.00;;;9.60
12918;BMP180;6526;54.312;13.092;2023-12-20T11:20:41;100289.00;;;9.60
12918;BMP180;6526;54.312;13.092;2023-12-20T11:23:11;100284.00;;;9.60
12918;BMP180;6526;54.312;13.092;2023-12-20T11:25:53;100290.00;;;9.60
12918;BMP180;6526;54.312;13.092;2023-12-20T11:28:24;100269.00;;;9.60
12918;BMP180;6526;54.312;13.092;2023-12-20T11:31:08;100276.00;;;9.60
12918;BMP180;6526;54.312;13.092;2023-12-20T11:33:40;100262.00;;;9.60
12918;BMP180;6526;54.312;13.092;2023-12-20T11:36:18;100264.00;;;9.60
12918;BMP180;6526;54.312;13.092;2023-12-20T11:38:57;100262.00;;;9.70
12918;BMP180;6526;54.312;13.092;2023-12-20T11:41:24;100257.00;;;9.60
12918;BMP180;6526;54.312;13.092;2023-12-20T11:43:53;100242.00;;;9.60
12918;BMP180;6526;54.312;13.092;2023-12-20T11:46:20;100247.00;;;9.50
12918;BMP180;6526;54.312;13.092;2023-12-20T11:48:46;100281.00;;;9.50
12918;BMP180;6526;54.312;13.092;2023-12-20T11:51:13;100278.00;;;9.50
12918;BMP180;6526;54.312;13.092;2023-12-20T11:53:40;100288.00;;;9.50
12918;BMP180;6526;54.312;13.092;2023-12-20T11:56:08;100272.00;;;9.50
12918;BMP180;6526;54.312;13.092;2023-12-20T11:58:34;100262.00;;;9.50
12918;BMP180;6526;54.312;13.092;2023-12-20T12:01:01;100268.00;;;9.50
12918;BMP180;6526;54.312;13.092;2023-12-20T12:03:33;100263.00;;;9.60
12918;BMP180;6526;54.312;13.092;2023-12-20T12:05:59;100272.00;;;9.60
12918;BMP180;6526;54.312;13.092;2023-12-20T12:08:26;100280.00;;;9.60
12918;BMP180;6526;54.312;13.092;2023-12-20T12:10:52;100270.00;;;9.60
12918;BMP180;6526;54.312;13.092;2023-12-20T12:13:18;100269.00;;;9.50
12918;BMP180;6526;54.312;13.092;2023-12-20T12:15:44;100255.00;;;9.50
12918;BMP180;6526;54.312;13.092;2023-12-20T12:18:10;100262.00;;;9.50
12918;BMP180;6526;54.312;13.092;2023-12-20T12:20:37;100277.00;;;9.60
12918;BMP180;6526;54.312;13.092;2023-12-20T12:23:04;100272.00;;;9.60
12918;BMP180;6526;54.312;13.092;2023-12-20T12:25:32;100276.00;;;9.60
12918;BMP180;6526;54.312;13.092;2023-12-20T12:27:58;100267.00;;;9.60
12918;BMP180;6526;54.312;13.092;2023-12-20T12:30:26;100279.00;;;9.60
12918;BMP180;6526;54.312;13.092;2023-12-20T12:32:52;100288.00;;;9.60
12918;BMP180;6526;54.312;13.092;2023-12-20T12:35:19;100268.00;;;9.50
12918;BMP180;6526;54.312;13.092;2023-12-20T12:37:46;100283.00;;;9.50
12918;BMP180;6526;54.312;13.092;2023-12-20T12:40:13;100286.00;;;9.50
12918;BMP180;6526;54.312;13.092;2023-12-20T12:42:40;100266.00;;;9.50
12918;BMP180;6526;54.312;13.092;2023-12-20T12:45:07;100287.00;;;9.50
12918;BMP180;6526;54.312;13.092;2023-12-20T12:47:35;100286.00;;;9.50
12918;BMP180;6526;54.312;13.092;2023-12-20T12:50:01;100288.00;;;9.50
12918;BMP180;6526;54.312;13.092;2023-12-20T12:52:27;100286.00;;;9.50
12918;BMP180;6526;54.312;13.092;2023-12-20T12:54:53;100292.00;;;9.50
12918;BMP180;6526;54.312;13.092;2023-12-20T12:57:19;100271.00;;;9.50
12918;BMP180;6526;54.312;13.092;2023-12-20T12:59:46;100279.00;;;9.50
12918;BMP180;6526;54.312;13.092;2023-12-20T13:02:15;100263.00;;;9.30
12918;BMP180;6526;54.312;13.092;2023-12-20T13:04:42;100277.00;;;9.40
12918;BMP180;6526;54.312;13.092;2023-12-20T13:07:09;100288.00;;;9.40
12918;BMP180;6526;54.312;13.092;2023-12-20T13:09:38;100283.00;;;9.40
12918;BMP180;6526;54.312;13.092;2023-12-20T13:12:05;100287.00;;;9.40
12918;BMP180;6526;54.312;13.092;2023-12-20T13:14:35;100281.00;;;9.40
12918;BMP180;6526;54.312;13.092;2023-12-20T13:17:03;100274.00;;;9.40
12918;BMP180;6526;54.312;13.092;2023-12-20T13:19:29;100290.00;;;9.40
12918;BMP180;6526;54.312;13.092;2023-12-20T13:21:56;100280.00;;;9.30
12918;BMP180;6526;54.312;13.092;2023-12-20T13:24:23;100288.00;;;9.40
12918;BMP180;6526;54.312;13.092;2023-12-20T13:26:49;100285.00;;;9.40
12918;BMP180;6526;54.312;13.092;2023-12-20T13:29:16;100287.00;;;9.30
12918;BMP180;6526;54.312;13.092;2023-12-20T13:31:42;100288.00;;;9.30
12918;BMP180;6526;54.312;13.092;2023-12-20T13:34:08;100299.00;;;9.30
12918;BMP180;6526;54.312;13.092;2023-12-20T13:36:34;100290.00;;;9.30
12918;BMP180;6526;54.312;13.092;2023-12-20T13:39:02;100302.00;;;9.30
12918;BMP180;6526;54.312;13.092;2023-12-20T13:41:30;100288.00;;;9.30
12918;BMP180;6526;54.312;13.092;2023-12-20T13:43:56;100301.00;;;9.30
12918;BMP180;6526;54.312;13.092;2023-12-20T13:46:22;100287.00;;;9.40
12918;BMP180;6526;54.312;13.092;2023-12-20T13:48:48;100291.00;;;9.40
12918;BMP180;6526;54.312;13.092;2023-12-20T13:51:15;100294.00;;;9.40
12918;BMP180;6526;54.312;13.092;2023-12-20T13:53:41;100291.00;;;9.40
12918;BMP180;6526;54.312;13.092;2023-12-20T13:56:07;100294.00;;;9.40
12918;BMP180;6526;54.312;13.092;2023-12-20T13:58:33;100300.00;;;9.40
12918;BMP180;6526;54.312;13.092;2023-12-20T14:00:59;100301.00;;;9.40
12918;BMP180;6526;54.312;13.092;2023-12-20T14:03:25;100310.00;;;9.50
12918;BMP180;6526;54.312;13.092;2023-12-20T14:05:51;100297.00;;;9.40
12918;BMP180;6526;54.312;13.092;2023-12-20T14:08:17;100302.00;;;9.50
12918;BMP180;6526;54.312;13.092;2023-12-20T14:10:43;100303.00;;;9.40
12918;BMP180;6526;54.312;13.092;2023-12-20T14:13:09;100302.00;;;9.40